Burr Oak, Iowa
Current Conditions -  °F | °C
As of 3:55 PM on Saturday 25 Oct 2014 (Local Time) from KDEH Reporting Station
Clear Clear  
Wind Chill: 64°   Ceiling: Unl
Heat Index: 64°   Visibility: 10mi
Dew Point: 28°   Wind: 14mph
Humidity: 26%   Direction: 310°NW
Pressure: 30.02"   Gusts: 23mph
Location:  43.46°N, 91.87°W
Report Text: KDEH 252055Z AUTO 31012G20KT 10SM CLR 18/M02 A3002 RMK AO2
Loading
Personal Weather Stations






























Interactive Weather Map
Tropical Storm Tracking
New forecast layout! Learn more

10-Day Weather Forecast

Advertisements
Track Severe Weather on mobile